Time;durP1;ratioP1;P1;durP2;ratioP2;P2;SDS_P1;SDS_P2;PMS_P1;PMS_P2;Temp;Humidity;BMP_temperature;BMP_pressure;BME280_temperature;BME280_humidity;BME280_pressure;Samples;Min_cycle;Max_cycle;Signal;HPM_P1;HPM_P2
2022/08/20 00:00:53;;;;;;;21.42;14.63;;;;;;;18.82;100.00;101468.31;5041246;28;20083;-68
2022/08/20 00:03:27;;;;;;;21.20;15.63;;;;;;;18.83;100.00;101472.78;5041498;28;20041;-68
2022/08/20 00:06:09;;;;;;;23.17;16.38;;;;;;;18.83;100.00;101467.22;5046601;28;20033;-68
2022/08/20 00:08:35;;;;;;;25.25;16.17;;;;;;;18.87;100.00;101465.56;5061849;28;20059;-67
2022/08/20 00:11:01;;;;;;;22.70;16.73;;;;;;;18.83;100.00;101465.25;5060796;28;20742;-68
2022/08/20 00:13:32;;;;;;;27.23;16.52;;;;;;;18.83;100.00;101461.66;5060681;28;20032;-68
2022/08/20 00:15:58;;;;;;;23.88;16.25;;;;;;;18.85;100.00;101462.19;5061187;28;20540;-67
2022/08/20 00:18:24;;;;;;;25.92;17.08;;;;;;;18.85;100.00;101465.81;5060914;28;20036;-67
2022/08/20 00:20:52;;;;;;;25.13;18.17;;;;;;;18.82;100.00;101457.19;5060966;28;20032;-68
2022/08/20 00:23:18;;;;;;;23.85;17.98;;;;;;;18.81;100.00;101459.13;5058104;28;20059;-67
2022/08/20 00:25:44;;;;;;;24.27;17.05;;;;;;;18.78;100.00;101456.88;5040536;28;20025;-67
2022/08/20 00:28:11;;;;;;;22.05;16.08;;;;;;;18.77;100.00;101457.16;5040511;28;20017;-67
2022/08/20 00:30:37;;;;;;;24.67;17.48;;;;;;;18.76;100.00;101455.50;5040885;28;20048;-67
2022/08/20 00:33:10;;;;;;;22.85;17.42;;;;;;;18.72;100.00;101455.19;5041466;28;20129;-67
2022/08/20 00:35:40;;;;;;;25.30;18.23;;;;;;;18.74;100.00;101454.91;5041124;28;20025;-67
2022/08/20 00:38:05;;;;;;;23.25;18.05;;;;;;;18.71;100.00;101450.75;5040915;28;20029;-67
2022/08/20 00:40:38;;;;;;;26.83;19.38;;;;;;;18.74;100.00;101452.97;5040869;28;20029;-67
2022/08/20 00:43:06;;;;;;;26.15;18.50;;;;;;;18.76;100.00;101455.50;5044237;28;20108;-67
2022/08/20 00:45:33;;;;;;;26.13;18.70;;;;;;;18.81;100.00;101455.53;5040205;28;20025;-67
2022/08/20 00:47:59;;;;;;;23.58;18.13;;;;;;;18.82;100.00;101446.88;5039879;28;20040;-68
2022/08/20 00:50:36;;;;;;;26.35;18.15;;;;;;;18.82;100.00;101455.25;5039278;28;20412;-68
2022/08/20 00:53:04;;;;;;;24.90;17.87;;;;;;;18.81;100.00;101450.78;5039525;28;20036;-67
2022/08/20 00:55:30;;;;;;;24.58;18.75;;;;;;;18.82;100.00;101458.03;5040403;28;20366;-67
2022/08/20 00:57:59;;;;;;;25.88;17.88;;;;;;;18.80;100.00;101454.66;5041188;28;20119;-67
2022/08/20 01:00:38;;;;;;;23.83;18.15;;;;;;;18.82;100.00;101454.41;5052079;28;20024;-67
2022/08/20 01:03:08;;;;;;;23.27;17.60;;;;;;;18.79;100.00;101450.22;5063574;28;20041;-68
2022/08/20 01:05:34;;;;;;;23.38;17.50;;;;;;;18.82;100.00;101451.63;5063329;28;20020;-67
2022/08/20 01:07:59;;;;;;;25.20;17.77;;;;;;;18.79;100.00;101447.41;5063978;28;20035;-67
2022/08/20 01:10:28;;;;;;;23.98;17.58;;;;;;;18.82;100.00;101451.63;5063339;28;20033;-67
2022/08/20 01:12:57;;;;;;;25.05;17.90;;;;;;;18.82;100.00;101451.63;5062730;28;20666;-68
2022/08/20 01:15:25;;;;;;;27.25;18.90;;;;;;;18.85;100.00;101451.06;5063911;28;20029;-67
2022/08/20 01:17:56;;;;;;;28.80;18.90;;;;;;;18.84;100.00;101443.81;5060166;28;20441;-67
2022/08/20 01:20:33;;;;;;;27.05;18.80;;;;;;;18.83;100.00;101448.56;5043679;28;20135;-67
2022/08/20 01:23:36;;;;;;;25.52;18.48;;;;;;;18.88;100.00;101453.31;5044884;28;20086;-68
2022/08/20 01:26:07;;;;;;;23.30;18.27;;;;;;;18.85;100.00;101453.84;5044295;28;20036;-67
2022/08/20 01:28:38;;;;;;;23.98;18.38;;;;;;;18.84;100.00;101450.22;5043212;28;20857;-67
2022/08/20 01:31:06;;;;;;;29.10;17.77;;;;;;;18.85;100.00;101456.63;5044106;28;20123;-68
2022/08/20 01:33:32;;;;;;;24.60;18.52;;;;;;;18.83;100.00;101456.06;5044439;28;20074;-67
2022/08/20 01:35:58;;;;;;;26.48;19.33;;;;;;;18.82;100.00;101455.25;5042812;28;20025;-70
2022/08/20 01:38:23;;;;;;;26.00;18.85;;;;;;;18.85;100.00;101456.63;5044361;28;20111;-68
2022/08/20 01:41:04;;;;;;;26.10;18.65;;;;;;;18.85;100.00;101459.41;5044712;28;20040;-67
2022/08/20 01:43:29;;;;;;;24.73;18.67;;;;;;;18.80;100.00;101460.22;5043718;28;20024;-67
2022/08/20 01:45:55;;;;;;;25.33;18.38;;;;;;;18.81;100.00;101461.94;5043970;28;20027;-68
2022/08/20 01:48:21;;;;;;;26.77;19.48;;;;;;;18.80;100.00;101453.81;5043897;28;20024;-67
2022/08/20 01:51:12;;;;;;;26.85;19.45;;;;;;;18.83;100.00;101454.13;5050712;28;20035;-68
2022/08/20 01:53:41;;;;;;;24.90;18.95;;;;;;;18.80;100.00;101451.03;5063898;28;20029;-67
2022/08/20 01:56:09;;;;;;;25.90;20.20;;;;;;;18.76;100.00;101450.75;5063597;28;20443;-67
2022/08/20 01:58:39;;;;;;;26.30;19.60;;;;;;;18.74;100.00;101454.91;5063156;28;20040;-68
2022/08/20 02:01:05;;;;;;;27.05;20.35;;;;;;;18.73;100.00;101453.25;5063221;28;20070;-68
2022/08/20 02:03:30;;;;;;;26.00;19.02;;;;;;;18.76;100.00;101458.28;5064046;28;20028;-67
2022/08/20 02:05:59;;;;;;;27.33;20.08;;;;;;;18.73;100.00;101458.81;5063242;28;20059;-68
2022/08/20 02:08:24;;;;;;;27.15;19.33;;;;;;;18.73;100.00;101456.84;5053276;28;20025;-67
2022/08/20 02:10:49;;;;;;;27.10;18.98;;;;;;;18.74;100.00;101455.75;5043807;28;20055;-68
2022/08/20 02:13:15;;;;;;;25.60;19.45;;;;;;;18.75;100.00;101468.53;5043825;28;20104;-67
2022/08/20 02:15:41;;;;;;;26.73;19.17;;;;;;;18.79;100.00;101463.28;5043616;28;20024;-68
2022/08/20 02:18:09;;;;;;;27.73;20.20;;;;;;;18.75;100.00;101459.38;5042987;28;20445;-67
2022/08/20 02:20:36;;;;;;;27.00;20.48;;;;;;;18.74;100.00;101466.03;5043175;28;20025;-68
2022/08/20 02:23:02;;;;;;;25.05;19.15;;;;;;;18.74;100.00;101457.69;5043344;28;20545;-68
2022/08/20 02:25:30;;;;;;;28.98;19.75;;;;;;;18.73;100.00;101469.94;5043484;28;20079;-67
2022/08/20 02:27:57;;;;;;;27.08;20.08;;;;;;;18.70;100.00;101460.16;5057660;28;20021;-68
2022/08/20 02:30:32;;;;;;;25.73;20.08;;;;;;;18.71;100.00;101458.25;5050795;28;20028;-67
2022/08/20 02:33:03;;;;;;;25.10;20.45;;;;;;;18.69;100.00;101461.28;5043147;28;20033;-67
2022/08/20 02:35:29;;;;;;;30.23;21.70;;;;;;;18.68;100.00;101462.41;5042806;28;20586;-68
2022/08/20 02:37:54;;;;;;;29.45;21.70;;;;;;;18.66;100.00;101457.09;5042598;28;20111;-68
2022/08/20 02:40:25;;;;;;;29.67;22.55;;;;;;;18.62;100.00;101466.22;5043187;28;20788;-68
2022/08/20 02:42:50;;;;;;;30.13;21.98;;;;;;;18.58;100.00;101465.94;5042921;28;20036;-68
2022/08/20 02:45:16;;;;;;;33.05;22.55;;;;;;;18.58;100.00;101473.44;5044628;28;20549;-68
2022/08/20 02:47:44;;;;;;;32.03;22.40;;;;;;;18.57;100.00;101471.78;5042333;28;20032;-68
2022/08/20 02:50:16;;;;;;;32.42;23.17;;;;;;;18.57;100.00;101477.34;5041968;28;20040;-67
2022/08/20 02:52:42;;;;;;;33.25;22.38;;;;;;;18.57;100.00;101463.44;5041847;28;20025;-68
2022/08/20 02:55:08;;;;;;;33.28;24.70;;;;;;;18.58;100.00;101474.28;5041671;28;20036;-67
2022/08/20 02:57:34;;;;;;;33.58;22.85;;;;;;;18.59;100.00;101469.53;5041498;28;20479;-67
2022/08/20 03:00:00;;;;;;;35.03;24.27;;;;;;;18.58;100.00;101471.50;5041638;28;20028;-67
2022/08/20 03:02:26;;;;;;;33.38;24.10;;;;;;;18.60;100.00;101472.06;5041282;28;20327;-67
2022/08/20 03:04:51;;;;;;;37.22;24.42;;;;;;;18.61;100.00;101470.13;5042577;28;20025;-67
2022/08/20 03:07:17;;;;;;;33.20;24.05;;;;;;;18.61;100.00;101475.69;5042803;28;20032;-68
2022/08/20 03:09:42;;;;;;;37.70;24.08;;;;;;;18.59;100.00;101473.16;5042355;28;20056;-68
2022/08/20 03:12:08;;;;;;;32.78;24.13;;;;;;;18.57;100.00;101467.03;5042487;28;20063;-68
2022/08/20 03:14:35;;;;;;;35.10;25.58;;;;;;;18.58;100.00;101467.88;5024293;28;20029;-68
2022/08/20 03:17:00;;;;;;;40.90;25.60;;;;;;;18.57;100.00;101463.44;5041854;28;20474;-68
2022/08/20 03:19:26;;;;;;;38.47;25.15;;;;;;;18.56;100.00;101464.53;5042930;28;20062;-68
2022/08/20 03:21:52;;;;;;;41.00;25.60;;;;;;;18.55;100.00;101463.69;5040647;28;20516;-68
2022/08/20 03:24:17;;;;;;;36.80;24.70;;;;;;;18.53;100.00;101470.63;5041813;28;20025;-68
2022/08/20 03:26:43;;;;;;;39.95;26.08;;;;;;;18.56;100.00;101468.16;5041351;28;20040;-68
2022/08/20 03:29:08;;;;;;;39.85;27.10;;;;;;;18.54;100.00;101467.56;5040804;28;20060;-67
2022/08/20 03:31:33;;;;;;;40.58;27.02;;;;;;;18.56;100.00;101475.66;5041406;28;20036;-68
2022/08/20 03:33:59;;;;;;;39.92;29.00;;;;;;;18.51;100.00;101473.69;5040983;28;20025;-68
2022/08/20 03:36:27;;;;;;;45.70;30.75;;;;;;;18.51;100.00;101478.41;5040730;28;20554;-67
2022/08/20 03:38:54;;;;;;;42.75;28.98;;;;;;;18.50;100.00;101477.56;5059427;28;20561;-68
2022/08/20 03:41:19;;;;;;;48.50;30.20;;;;;;;18.48;100.00;101481.72;5061509;28;20502;-68
2022/08/20 03:43:45;;;;;;;46.67;31.17;;;;;;;18.48;100.00;101479.78;5060794;28;20052;-68
2022/08/20 03:46:10;;;;;;;50.40;31.35;;;;;;;18.49;100.00;101480.59;5061086;28;20077;-68
2022/08/20 03:48:36;;;;;;;50.45;31.95;;;;;;;18.45;100.00;101480.31;5060938;28;20114;-68
2022/08/20 03:51:02;;;;;;;48.10;32.60;;;;;;;18.45;100.00;101479.47;5060594;28;20108;-68
2022/08/20 03:53:30;;;;;;;54.15;33.88;;;;;;;18.42;100.00;101487.25;5052545;28;20029;-68
2022/08/20 03:55:56;;;;;;;;;;;;;;;18.50;100.00;101483.16;5041123;28;20056;-68
2022/08/20 03:58:22;;;;;;;54.33;33.55;;;;;;;18.49;100.00;101475.88;5041023;28;19917;-67
2022/08/20 04:00:50;;;;;;;49.17;34.20;;;;;;;18.40;100.00;101481.13;5041186;28;20029;-68
2022/08/20 04:03:16;;;;;;;57.00;34.25;;;;;;;18.39;100.00;101475.81;5040876;28;20223;-68
2022/08/20 04:05:42;;;;;;;54.10;35.75;;;;;;;18.36;100.00;101482.75;5040410;28;20040;-68
2022/08/20 04:08:15;;;;;;;56.13;35.38;;;;;;;18.31;100.00;101479.09;5040653;28;20287;-67
2022/08/20 04:10:41;;;;;;;55.80;35.58;;;;;;;18.31;100.00;101493.00;5040733;28;20090;-67
2022/08/20 04:13:07;;;;;;;56.88;36.63;;;;;;;18.31;100.00;101493.84;5060068;28;20040;-67
2022/08/20 04:15:34;;;;;;;56.75;37.28;;;;;;;18.30;100.00;101496.91;5060496;28;20064;-68
2022/08/20 04:17:59;;;;;;;59.37;39.80;;;;;;;18.28;100.00;101494.38;5060911;28;20033;-67
2022/08/20 04:20:26;;;;;;;56.92;36.42;;;;;;;18.29;100.00;101492.41;5059734;28;20497;-68
2022/08/20 04:22:54;;;;;;;52.63;36.20;;;;;;;18.27;100.00;101491.88;5061123;28;20029;-67
2022/08/20 04:25:20;;;;;;;54.97;38.88;;;;;;;18.23;100.00;101497.13;5061617;28;20383;-68
2022/08/20 04:27:46;;;;;;;58.83;38.60;;;;;;;18.20;100.00;101494.00;5048129;28;20031;-68
2022/08/20 04:30:15;;;;;;;55.38;38.08;;;;;;;18.17;100.00;101505.69;5041633;28;20108;-68
2022/08/20 04:32:41;;;;;;;63.50;39.33;;;;;;;18.15;100.00;101504.03;5044529;28;20025;-68
2022/08/20 04:35:10;;;;;;;62.83;38.63;;;;;;;18.15;100.00;101508.75;5044691;28;20177;-68
2022/08/20 04:37:38;;;;;;;61.42;39.50;;;;;;;18.14;100.00;101512.59;5045556;28;20392;-68
2022/08/20 04:42:52;;;;;;;62.35;39.30;;;;;;;18.11;100.00;101518.72;5044708;28;20471;-68
2022/08/20 04:45:17;;;;;;;64.13;40.30;;;;;;;18.06;100.00;101516.72;5058193;28;20060;-68
2022/08/20 04:47:42;;;;;;;68.38;41.95;;;;;;;18.04;100.00;101521.69;5065128;28;20028;-68
2022/08/20 04:50:10;;;;;;;66.50;41.10;;;;;;;18.01;100.00;101530.56;5064674;28;20151;-67
2022/08/20 04:52:36;;;;;;;63.37;41.63;;;;;;;18.06;100.00;101527.84;5065617;28;20119;-68
2022/08/20 04:55:02;;;;;;;67.10;40.78;;;;;;;18.04;100.00;101527.25;5064568;28;20056;-68
2022/08/20 04:57:28;;;;;;;66.60;42.05;;;;;;;18.01;100.00;101527.78;5064695;28;20039;-68
2022/08/20 04:59:53;;;;;;;64.50;42.03;;;;;;;18.01;100.00;101538.91;5050583;28;20037;-68
2022/08/20 05:02:20;;;;;;;67.38;42.22;;;;;;;17.99;100.00;101537.47;5049483;28;20093;-68
2022/08/20 05:04:46;;;;;;;64.07;42.30;;;;;;;17.97;100.00;101546.09;5045780;28;20434;-68
2022/08/20 05:07:13;;;;;;;62.70;41.50;;;;;;;17.97;100.00;101548.03;5044556;28;20029;-67
2022/08/20 05:09:39;;;;;;;64.15;42.10;;;;;;;17.97;100.00;101546.09;5045379;28;20036;-68
2022/08/20 05:12:04;;;;;;;67.47;42.42;;;;;;;17.93;100.00;101542.16;5044394;28;20040;-68
2022/08/20 05:14:30;;;;;;;69.30;43.72;;;;;;;17.93;100.00;101544.94;5044690;28;20396;-68
2022/08/20 05:16:56;;;;;;;67.70;44.05;;;;;;;17.97;100.00;101550.81;5044429;28;20083;-68
2022/08/20 05:19:22;;;;;;;63.65;41.78;;;;;;;17.93;100.00;101544.94;5044476;28;20028;-67
2022/08/20 05:21:52;;;;;;;72.75;42.85;;;;;;;17.93;100.00;101544.94;5044553;28;20033;-68
2022/08/20 05:24:18;;;;;;;58.70;40.85;;;;;;;17.86;100.00;101549.88;5045312;28;20031;-68
2022/08/20 05:26:44;;;;;;;69.50;40.97;;;;;;;17.85;100.00;101549.03;5044292;28;20565;-68
2022/08/20 05:29:09;;;;;;;58.40;39.75;;;;;;;17.83;100.00;101548.44;5043772;28;20032;-67
2022/08/20 05:31:34;;;;;;;57.72;40.15;;;;;;;17.81;100.00;101553.44;5044547;28;20029;-68
2022/08/20 05:34:08;;;;;;;64.88;40.58;;;;;;;17.83;100.00;101551.22;5044368;28;20025;-68
2022/08/20 05:36:33;;;;;;;56.00;37.53;;;;;;;17.85;100.00;101562.09;5043184;28;20040;-68
2022/08/20 05:38:59;;;;;;;56.33;38.03;;;;;;;17.84;100.00;101564.03;5026229;28;20025;-68
2022/08/20 05:41:24;;;;;;;56.10;37.40;;;;;;;17.83;100.00;101556.78;5044005;28;20534;-68
2022/08/20 05:43:50;;;;;;;53.88;36.17;;;;;;;17.79;100.00;101563.13;5043612;28;20589;-68
2022/08/20 05:46:16;;;;;;;58.78;36.25;;;;;;;17.75;100.00;101567.56;5044769;28;20025;-67
2022/08/20 05:48:41;;;;;;;54.97;36.17;;;;;;;17.72;100.00;101560.53;5043832;28;20396;-67
2022/08/20 05:51:07;;;;;;;56.97;36.17;;;;;;;17.75;100.00;101564.78;5043752;28;20021;-67
2022/08/20 05:53:33;;;;;;;58.00;37.17;;;;;;;17.77;100.00;101568.13;5044064;28;20613;-68
2022/08/20 05:56:00;;;;;;;52.40;35.70;;;;;;;17.76;100.00;101572.84;5044737;28;20107;-67
2022/08/20 05:58:28;;;;;;;56.20;36.73;;;;;;;17.77;100.00;101562.56;5042901;28;20025;-68
2022/08/20 06:00:53;;;;;;;54.42;35.78;;;;;;;17.84;100.00;101568.72;5043790;28;20793;-68
2022/08/20 06:06:03;;;;;;;56.22;36.35;;;;;;;17.99;100.00;101577.22;5043479;28;20546;-68
2022/08/20 06:08:29;;;;;;;59.72;36.53;;;;;;;18.04;100.00;101577.28;5043958;28;20021;-67
2022/08/20 06:10:56;;;;;;;56.15;38.35;;;;;;;18.11;100.00;101572.38;5043206;28;20087;-67
2022/08/20 06:13:21;;;;;;;50.65;34.75;;;;;;;18.13;100.00;101578.50;5042025;28;20416;-67
2022/08/20 06:15:46;;;;;;;59.30;37.85;;;;;;;18.14;100.00;101579.31;5044007;28;20041;-67
2022/08/20 06:18:12;;;;;;;57.65;36.88;;;;;;;18.16;100.00;101585.47;5043117;28;20033;-67
2022/08/20 06:20:38;;;;;;;56.17;37.28;;;;;;;18.21;100.00;101579.13;5043128;28;20052;-68
2022/08/20 06:23:04;;;;;;;50.97;34.65;;;;;;;18.22;100.00;101580.81;5043235;28;20096;-68
2022/08/20 06:25:30;;;;;;;51.45;35.83;;;;;;;18.23;100.00;101580.53;5043742;28;20017;-68
2022/08/20 06:27:56;;;;;;;53.05;37.10;;;;;;;18.29;100.00;101576.69;5041947;28;20029;-67
2022/08/20 06:30:21;;;;;;;48.45;36.03;;;;;;;18.34;100.00;101573.13;5050125;28;20365;-68
2022/08/20 06:32:49;;;;;;;53.38;36.00;;;;;;;18.31;100.00;101570.88;5063750;28;20024;-68
2022/08/20 06:35:15;;;;;;;51.38;34.10;;;;;;;18.35;100.00;101581.22;5062211;28;20021;-67
2022/08/20 06:37:41;;;;;;;49.70;34.50;;;;;;;18.35;100.00;101578.44;5061534;28;20036;-68
2022/08/20 06:40:12;;;;;;;49.72;36.25;;;;;;;18.35;100.00;101585.94;5042608;28;20381;-67
2022/08/20 06:42:42;;;;;;;57.15;35.65;;;;;;;18.40;100.00;101584.03;5042243;28;20060;-68
2022/08/20 06:45:09;;;;;;;50.80;35.53;;;;;;;18.47;100.00;101589.38;5043172;28;20029;-67
2022/08/20 06:47:40;;;;;;;54.50;35.20;;;;;;;18.48;100.00;101588.25;5053875;28;20119;-68
2022/08/20 06:50:22;;;;;;;48.67;34.15;;;;;;;18.57;100.00;101589.44;5062398;28;20579;-67
2022/08/20 06:52:48;;;;;;;51.83;33.38;;;;;;;18.45;100.00;101588.81;5063592;28;20087;-68
2022/08/20 06:55:15;;;;;;;47.90;32.58;;;;;;;18.46;100.00;101587.69;5061724;28;20419;-68
2022/08/20 06:57:40;;;;;;;47.85;33.35;;;;;;;18.54;100.00;101589.97;5061988;28;20062;-68
2022/08/20 07:00:18;;;;;;;40.47;30.85;;;;;;;18.59;100.00;101592.78;5062652;28;20044;-67
2022/08/20 07:02:43;;;;;;;44.33;31.90;;;;;;;18.63;100.00;101588.38;5060997;28;20036;-67
2022/08/20 07:05:09;;;;;;;44.47;32.58;;;;;;;18.70;100.00;101598.47;5041164;28;20434;-67
2022/08/20 07:07:36;;;;;;;46.13;33.63;;;;;;;18.79;100.00;101592.13;5043008;28;20480;-67
2022/08/20 07:10:08;;;;;;;49.33;33.03;;;;;;;18.81;100.00;101587.16;5042412;28;20033;-68
2022/08/20 07:12:35;;;;;;;41.92;31.92;;;;;;;18.85;100.00;101595.78;5041989;28;20036;-67
2022/08/20 07:15:04;;;;;;;40.65;29.48;;;;;;;18.82;100.00;101597.19;5042183;28;20053;-68
2022/08/20 07:17:29;;;;;;;40.20;30.70;;;;;;;18.91;100.00;101595.59;5042335;28;20357;-67
2022/08/20 07:19:55;;;;;;;42.13;29.60;;;;;;;19.03;100.00;101600.94;5042333;28;20024;-68
2022/08/20 07:22:20;;;;;;;35.10;27.48;;;;;;;19.07;100.00;101604.03;5048865;28;20051;-67
2022/08/20 07:24:45;;;;;;;37.70;27.25;;;;;;;19.11;100.00;101606.00;5062671;28;20070;-68
2022/08/20 07:27:11;;;;;;;38.50;27.10;;;;;;;19.18;100.00;101605.75;5043442;28;20433;-67
2022/08/20 07:32:35;;;;;;;35.40;24.85;;;;;;;19.17;100.00;101618.84;5042779;28;20353;-66
2022/08/20 07:35:10;;;;;;;37.47;25.33;;;;;;;19.16;100.00;101617.19;5042370;28;20021;-67
2022/08/20 07:37:40;;;;;;;36.30;25.23;;;;;;;19.11;100.00;101625.50;5042327;28;20087;-68
2022/08/20 07:40:10;;;;;;;34.35;25.83;;;;;;;19.15;100.00;101621.03;5043051;28;20032;-67
2022/08/20 07:42:38;;;;;;;32.78;25.02;;;;;;;19.18;100.00;101625.25;5060772;28;20042;-68
2022/08/20 07:45:04;;;;;;;;;;;;;;;19.41;100.00;101623.97;5063065;28;20028;-67
2022/08/20 07:47:29;;;;;;;32.35;24.65;;;;;;;19.52;100.00;101627.66;5062166;28;19912;-68
2022/08/20 07:49:55;;;;;;;31.65;23.30;;;;;;;19.71;98.50;101620.50;5062067;28;20352;-68
2022/08/20 07:52:20;;;;;;;32.70;21.90;;;;;;;19.86;97.28;101623.34;5061768;28;20036;-67
2022/08/20 07:54:45;;;;;;;27.42;20.48;;;;;;;19.82;96.62;101627.81;5062397;28;20418;-67
2022/08/20 07:57:10;;;;;;;27.70;20.42;;;;;;;19.87;96.28;101630.63;5061484;28;20032;-67
2022/08/20 07:59:37;;;;;;;30.00;21.33;;;;;;;20.03;98.01;101647.41;5054977;28;20028;-68
2022/08/20 08:02:03;;;;;;;28.92;22.10;;;;;;;19.98;97.95;101645.44;5062107;28;20275;-67
2022/08/20 08:04:28;;;;;;;26.80;20.33;;;;;;;19.77;96.40;101657.59;5061888;28;20098;-68
2022/08/20 08:06:58;;;;;;;26.77;19.88;;;;;;;19.68;95.14;101652.56;5064197;28;20036;-67
2022/08/20 08:09:24;;;;;;;24.60;18.25;;;;;;;19.70;94.61;101647.53;5066249;28;20020;-67
2022/08/20 08:11:49;;;;;;;26.50;19.55;;;;;;;19.73;94.85;101648.13;5065547;28;20020;-67
2022/08/20 08:14:22;;;;;;;31.05;20.25;;;;;;;19.80;95.27;101651.50;5065682;28;20017;-67
2022/08/20 08:16:48;;;;;;;27.73;20.05;;;;;;;19.81;94.68;101654.00;5053888;28;20025;-67
2022/08/20 08:19:16;;;;;;;26.92;18.92;;;;;;;19.77;95.05;101652.91;5045493;28;20620;-67
2022/08/20 08:21:43;;;;;;;25.35;18.38;;;;;;;19.75;96.27;101654.25;5045373;28;20017;-67
2022/08/20 08:24:09;;;;;;;24.08;18.25;;;;;;;19.64;94.72;101654.22;5045839;28;20066;-67
2022/08/20 08:26:35;;;;;;;22.58;16.73;;;;;;;19.64;93.97;101659.78;5026888;28;20763;-67
2022/08/20 08:29:01;;;;;;;24.15;16.25;;;;;;;19.66;92.05;101657.56;5045385;28;20096;-67
2022/08/20 08:31:26;;;;;;;22.40;16.85;;;;;;;19.76;92.78;101653.16;5045700;28;20021;-67
2022/08/20 08:33:52;;;;;;;24.55;16.95;;;;;;;19.90;93.01;101657.94;5060892;28;20486;-67
2022/08/20 08:36:17;;;;;;;22.20;14.18;;;;;;;19.99;89.53;101654.63;5064941;28;20033;-67
2022/08/20 08:38:44;;;;;;;21.38;14.40;;;;;;;20.01;90.91;101663.53;5065613;28;20035;-67
2022/08/20 08:41:15;;;;;;;21.17;14.30;;;;;;;20.02;90.49;101656.84;5065063;28;20063;-67
2022/08/20 08:43:45;;;;;;;21.10;15.23;;;;;;;20.04;89.67;101666.63;5064554;28;20073;-67
2022/08/20 08:46:15;;;;;;;22.30;15.55;;;;;;;20.14;88.19;101665.84;5065046;28;20063;-67
2022/08/20 08:48:45;;;;;;;17.95;14.63;;;;;;;20.27;88.64;101667.25;5058716;28;20033;-66
2022/08/20 08:51:20;;;;;;;20.90;15.00;;;;;;;20.30;87.57;101667.53;5044736;28;20037;-66
2022/08/20 08:53:52;;;;;;;25.67;16.60;;;;;;;20.35;87.08;101669.50;5046120;28;20067;-67
2022/08/20 08:56:17;;;;;;;20.77;14.45;;;;;;;20.57;87.38;101670.09;5045878;28;20029;-66
2022/08/20 08:58:43;;;;;;;19.83;14.80;;;;;;;20.77;86.51;101677.66;5043823;28;20585;-67
2022/08/20 09:01:19;;;;;;;17.70;13.13;;;;;;;20.95;84.49;101676.28;5045133;28;20383;-66
2022/08/20 09:03:47;;;;;;;19.27;14.35;;;;;;;21.11;82.06;101680.72;5045141;28;20047;-67
2022/08/20 09:06:19;;;;;;;19.02;15.45;;;;;;;21.43;82.23;101673.97;5044332;28;20021;-66
2022/08/20 09:08:59;;;;;;;19.08;14.52;;;;;;;21.37;82.06;101675.94;5045025;28;20464;-66
2022/08/20 09:11:25;;;;;;;19.30;13.27;;;;;;;21.80;78.87;101675.56;5045004;28;20021;-66
2022/08/20 09:13:53;;;;;;;22.20;12.70;;;;;;;22.80;74.30;101673.25;5044402;28;20384;-66
2022/08/20 09:16:21;;;;;;;20.63;13.02;;;;;;;24.52;67.72;101681.94;5045316;28;20029;-67
2022/08/20 09:18:46;;;;;;;18.65;12.70;;;;;;;25.69;62.14;101676.22;5044548;28;20044;-67
2022/08/20 09:21:13;;;;;;;18.40;12.10;;;;;;;26.73;58.00;101672.50;5044064;28;20438;-67
2022/08/20 09:23:39;;;;;;;16.25;10.65;;;;;;;27.77;55.23;101675.91;5046789;28;20086;-67
2022/08/20 09:26:04;;;;;;;14.23;9.13;;;;;;;28.74;51.77;101683.38;5064207;28;20017;-67
2022/08/20 09:28:29;;;;;;;13.65;8.55;;;;;;;29.34;49.21;101669.13;5063876;28;20025;-67
2022/08/20 09:30:55;;;;;;;13.82;7.60;;;;;;;30.14;44.67;101668.44;5064400;28;20035;-67
2022/08/20 09:33:20;;;;;;;14.85;8.25;;;;;;;30.78;43.03;101676.63;5064563;28;20031;-67
2022/08/20 09:35:45;;;;;;;12.75;7.68;;;;;;;31.48;42.01;101666.19;5064527;28;20425;-67
2022/08/20 09:38:11;;;;;;;14.70;8.45;;;;;;;31.78;40.30;101675.31;5045941;28;20507;-67
2022/08/20 09:40:36;;;;;;;11.93;7.47;;;;;;;32.15;41.02;101668.81;5064468;28;20082;-66
2022/08/20 09:43:05;;;;;;;11.73;5.17;;;;;;;32.33;38.21;101678.69;5048066;28;20053;-66
2022/08/20 09:45:30;;;;;;;9.98;4.50;;;;;;;32.30;37.23;101665.22;5044508;28;20283;-66
2022/08/20 09:47:55;;;;;;;12.45;4.32;;;;;;;32.82;36.34;101666.34;5044203;28;20061;-66
2022/08/20 09:50:21;;;;;;;10.05;6.47;;;;;;;33.71;35.29;101663.06;5043569;28;20480;-67
2022/08/20 09:52:49;;;;;;;12.40;6.20;;;;;;;34.26;36.95;101661.13;5044529;28;20029;-66
2022/08/20 09:55:29;;;;;;;11.65;5.85;;;;;;;34.40;36.54;101667.16;5025985;28;20766;-66
2022/08/20 09:57:54;;;;;;;11.38;6.95;;;;;;;34.99;35.26;101659.47;5043542;28;20025;-66
2022/08/20 10:00:20;;;;;;;13.70;6.40;;;;;;;33.76;34.50;101657.09;5051875;28;20437;-66
2022/08/20 10:02:46;;;;;;;15.20;7.30;;;;;;;32.25;36.67;101657.75;5063591;28;20052;-66
2022/08/20 10:05:12;;;;;;;11.82;6.60;;;;;;;31.45;40.61;101651.88;5062299;28;20017;-66
2022/08/20 10:07:38;;;;;;;11.30;6.95;;;;;;;32.32;38.50;101659.97;5064101;28;20029;-66
2022/08/20 10:10:05;;;;;;;11.02;7.20;;;;;;;32.77;36.31;101656.06;5062853;28;20111;-66
2022/08/20 10:12:30;;;;;;;9.90;5.35;;;;;;;32.94;36.33;101655.75;5062033;28;20058;-66
2022/08/20 10:14:55;;;;;;;12.25;5.63;;;;;;;31.04;38.75;101661.34;5063853;28;20021;-66
2022/08/20 10:17:21;;;;;;;11.65;4.95;;;;;;;29.76;41.10;101658.00;5044774;28;20029;-66
2022/08/20 10:19:46;;;;;;;9.85;3.90;;;;;;;29.15;41.28;101654.56;5043909;28;20447;-65
2022/08/20 10:22:11;;;;;;;10.07;3.40;;;;;;;28.31;40.78;101659.59;5038618;28;20373;-66
2022/08/20 10:24:36;;;;;;;8.63;3.00;;;;;;;27.83;44.53;101660.53;5043987;28;20271;-66
2022/08/20 10:27:02;;;;;;;10.75;2.75;;;;;;;29.65;39.22;101651.03;5042807;28;20440;-66
2022/08/20 10:29:28;;;;;;;8.70;2.85;;;;;;;31.16;35.37;101648.00;5042479;28;20036;-66
2022/08/20 10:31:55;;;;;;;9.98;2.35;;;;;;;32.39;32.96;101654.56;5038354;28;20021;-67
2022/08/20 10:34:21;;;;;;;11.68;2.45;;;;;;;33.06;32.06;101654.88;5043669;28;20594;-66
2022/08/20 10:36:46;;;;;;;10.90;2.70;;;;;;;33.29;30.84;101655.06;5043134;28;20025;-66
2022/08/20 10:39:12;;;;;;;10.27;3.15;;;;;;;33.82;30.19;101653.59;5043618;28;20033;-66
2022/08/20 10:41:37;;;;;;;8.52;2.28;;;;;;;34.10;29.49;101655.50;5042972;28;20029;-66
2022/08/20 10:44:03;;;;;;;9.20;2.25;;;;;;;34.39;27.71;101659.81;5043150;28;20029;-66
2022/08/20 10:46:29;;;;;;;10.73;2.63;;;;;;;34.37;27.93;101662.22;5042881;28;20411;-65
2022/08/20 10:48:54;;;;;;;10.27;2.28;;;;;;;35.44;28.03;101655.81;5045148;28;20035;-66
2022/08/20 10:51:19;;;;;;;8.88;2.20;;;;;;;35.60;27.33;101662.25;5062618;28;20060;-65
2022/08/20 10:53:45;;;;;;;11.05;2.20;;;;;;;35.97;26.91;101658.75;5046903;28;20031;-66
2022/08/20 10:56:10;;;;;;;10.68;2.88;;;;;;;35.36;27.05;101665.47;5042155;28;20024;-66
2022/08/20 10:58:35;;;;;;;10.43;3.17;;;;;;;35.45;27.52;101656.66;5041851;28;20036;-65
2022/08/20 11:01:00;;;;;;;10.10;2.33;;;;;;;35.39;27.85;101666.75;5030828;28;20283;-66
2022/08/20 11:03:26;;;;;;;9.57;2.88;;;;;;;35.30;25.97;101658.41;5041359;28;20043;-66
2022/08/20 11:05:51;;;;;;;9.80;2.60;;;;;;;35.04;26.61;101654.28;5015971;28;20083;-66
2022/08/20 11:08:16;;;;;;;8.43;2.13;;;;;;;35.18;27.26;101655.72;5042102;28;20773;-66
2022/08/20 11:10:41;;;;;;;8.68;2.28;;;;;;;34.95;27.49;101652.88;5042451;28;20279;-67
2022/08/20 11:13:07;;;;;;;9.05;2.53;;;;;;;34.25;26.81;101659.50;5041854;28;20107;-67
2022/08/20 11:15:36;;;;;;;12.55;2.95;;;;;;;33.52;28.48;101653.28;5042534;28;20765;-66